sensor_id;sensor_type;location;lat;lon;timestamp;temperature;humidity
10512;DHT22;5304;48.604;2.096;2022-08-18T00:00:20;16.70;99.90
10512;DHT22;5304;48.604;2.096;2022-08-18T00:03:07;16.80;99.90
10512;DHT22;5304;48.604;2.096;2022-08-18T00:05:52;16.70;99.90
10512;DHT22;5304;48.604;2.096;2022-08-18T00:08:36;16.60;99.90
10512;DHT22;5304;48.604;2.096;2022-08-18T00:11:20;16.70;99.90
10512;DHT22;5304;48.604;2.096;2022-08-18T00:14:06;16.70;99.90
10512;DHT22;5304;48.604;2.096;2022-08-18T00:16:52;16.80;99.90
10512;DHT22;5304;48.604;2.096;2022-08-18T00:19:52;16.80;99.90
10512;DHT22;5304;48.604;2.096;2022-08-18T00:22:37;16.70;99.90
10512;DHT22;5304;48.604;2.096;2022-08-18T00:25:23;16.70;99.90
10512;DHT22;5304;48.604;2.096;2022-08-18T00:28:08;16.60;99.90
10512;DHT22;5304;48.604;2.096;2022-08-18T00:30:52;16.60;99.90
10512;DHT22;5304;48.604;2.096;2022-08-18T00:33:37;16.60;99.90
10512;DHT22;5304;48.604;2.096;2022-08-18T00:36:21;16.60;99.90
10512;DHT22;5304;48.604;2.096;2022-08-18T00:39:06;16.60;99.90
10512;DHT22;5304;48.604;2.096;2022-08-18T00:41:50;16.60;99.90
10512;DHT22;5304;48.604;2.096;2022-08-18T00:44:35;16.50;99.90
10512;DHT22;5304;48.604;2.096;2022-08-18T00:47:19;16.60;99.90
10512;DHT22;5304;48.604;2.096;2022-08-18T00:50:05;16.60;99.90
10512;DHT22;5304;48.604;2.096;2022-08-18T00:52:57;16.50;99.90
10512;DHT22;5304;48.604;2.096;2022-08-18T00:55:43;16.40;99.90
10512;DHT22;5304;48.604;2.096;2022-08-18T00:58:33;16.40;99.90
10512;DHT22;5304;48.604;2.096;2022-08-18T01:01:21;16.30;99.90
10512;DHT22;5304;48.604;2.096;2022-08-18T01:04:27;16.20;99.90
10512;DHT22;5304;48.604;2.096;2022-08-18T01:07:46;16.20;99.90
10512;DHT22;5304;48.604;2.096;2022-08-18T01:10:32;16.10;99.90
10512;DHT22;5304;48.604;2.096;2022-08-18T01:13:18;16.10;99.90
10512;DHT22;5304;48.604;2.096;2022-08-18T01:16:03;16.10;99.90
10512;DHT22;5304;48.604;2.096;2022-08-18T01:19:07;16.00;99.90
10512;DHT22;5304;48.604;2.096;2022-08-18T01:22:21;16.00;99.90
10512;DHT22;5304;48.604;2.096;2022-08-18T01:25:06;16.00;99.90
10512;DHT22;5304;48.604;2.096;2022-08-18T01:28:10;15.90;99.90
10512;DHT22;5304;48.604;2.096;2022-08-18T01:30:56;15.90;99.90
10512;DHT22;5304;48.604;2.096;2022-08-18T01:33:43;15.80;99.90
10512;DHT22;5304;48.604;2.096;2022-08-18T01:36:27;15.80;99.90
10512;DHT22;5304;48.604;2.096;2022-08-18T01:39:12;15.90;99.90
10512;DHT22;5304;48.604;2.096;2022-08-18T01:41:57;15.90;99.90
10512;DHT22;5304;48.604;2.096;2022-08-18T01:44:46;16.00;99.90
10512;DHT22;5304;48.604;2.096;2022-08-18T01:47:32;16.10;99.90
10512;DHT22;5304;48.604;2.096;2022-08-18T01:50:17;16.30;99.90
10512;DHT22;5304;48.604;2.096;2022-08-18T01:53:03;16.30;99.90
10512;DHT22;5304;48.604;2.096;2022-08-18T01:55:49;16.10;99.90
10512;DHT22;5304;48.604;2.096;2022-08-18T01:58:35;15.90;99.90
10512;DHT22;5304;48.604;2.096;2022-08-18T02:01:20;15.90;99.90
10512;DHT22;5304;48.604;2.096;2022-08-18T02:04:05;16.00;99.90
10512;DHT22;5304;48.604;2.096;2022-08-18T02:06:50;16.00;99.90
10512;DHT22;5304;48.604;2.096;2022-08-18T02:09:37;16.10;99.90
10512;DHT22;5304;48.604;2.096;2022-08-18T02:12:22;16.10;99.90
10512;DHT22;5304;48.604;2.096;2022-08-18T02:15:08;15.90;99.90
10512;DHT22;5304;48.604;2.096;2022-08-18T02:17:52;15.90;99.90
10512;DHT22;5304;48.604;2.096;2022-08-18T02:20:37;15.80;99.90
10512;DHT22;5304;48.604;2.096;2022-08-18T02:23:23;15.70;99.90
10512;DHT22;5304;48.604;2.096;2022-08-18T02:26:11;15.70;99.90
10512;DHT22;5304;48.604;2.096;2022-08-18T02:28:56;15.60;99.90
10512;DHT22;5304;48.604;2.096;2022-08-18T02:31:41;15.70;99.90
10512;DHT22;5304;48.604;2.096;2022-08-18T02:34:25;15.70;99.90
10512;DHT22;5304;48.604;2.096;2022-08-18T02:37:10;15.80;99.90
10512;DHT22;5304;48.604;2.096;2022-08-18T02:39:54;15.80;99.90
10512;DHT22;5304;48.604;2.096;2022-08-18T02:42:39;15.80;99.90
10512;DHT22;5304;48.604;2.096;2022-08-18T02:45:25;15.80;99.90
10512;DHT22;5304;48.604;2.096;2022-08-18T02:48:09;15.80;99.90
10512;DHT22;5304;48.604;2.096;2022-08-18T02:51:02;15.90;99.90
10512;DHT22;5304;48.604;2.096;2022-08-18T02:53:47;15.90;99.90
10512;DHT22;5304;48.604;2.096;2022-08-18T02:56:32;16.00;99.90
10512;DHT22;5304;48.604;2.096;2022-08-18T02:59:20;16.10;99.90
10512;DHT22;5304;48.604;2.096;2022-08-18T03:02:07;16.10;99.90
10512;DHT22;5304;48.604;2.096;2022-08-18T03:04:51;16.10;99.90
10512;DHT22;5304;48.604;2.096;2022-08-18T03:07:36;16.10;99.90
10512;DHT22;5304;48.604;2.096;2022-08-18T03:10:21;16.00;99.90
10512;DHT22;5304;48.604;2.096;2022-08-18T03:13:05;16.00;99.90
10512;DHT22;5304;48.604;2.096;2022-08-18T03:15:50;16.00;99.90
10512;DHT22;5304;48.604;2.096;2022-08-18T03:18:34;15.90;99.90
10512;DHT22;5304;48.604;2.096;2022-08-18T03:21:23;15.90;99.90
10512;DHT22;5304;48.604;2.096;2022-08-18T03:24:08;15.90;99.90
10512;DHT22;5304;48.604;2.096;2022-08-18T03:26:53;15.90;99.90
10512;DHT22;5304;48.604;2.096;2022-08-18T03:29:39;15.90;99.90
10512;DHT22;5304;48.604;2.096;2022-08-18T03:32:24;16.00;99.90
10512;DHT22;5304;48.604;2.096;2022-08-18T03:35:08;15.90;99.90
10512;DHT22;5304;48.604;2.096;2022-08-18T03:37:55;15.80;99.90
10512;DHT22;5304;48.604;2.096;2022-08-18T03:40:41;15.70;99.90
10512;DHT22;5304;48.604;2.096;2022-08-18T03:43:26;16.00;99.90
10512;DHT22;5304;48.604;2.096;2022-08-18T03:46:12;16.10;99.90
10512;DHT22;5304;48.604;2.096;2022-08-18T03:48:58;16.00;99.90
10512;DHT22;5304;48.604;2.096;2022-08-18T03:51:44;15.90;99.90
10512;DHT22;5304;48.604;2.096;2022-08-18T03:54:31;15.80;99.90
10512;DHT22;5304;48.604;2.096;2022-08-18T03:57:16;15.70;99.90
10512;DHT22;5304;48.604;2.096;2022-08-18T04:00:01;15.70;99.90
10512;DHT22;5304;48.604;2.096;2022-08-18T04:02:45;15.80;99.90
10512;DHT22;5304;48.604;2.096;2022-08-18T04:05:30;15.70;99.90
10512;DHT22;5304;48.604;2.096;2022-08-18T04:08:15;15.70;99.90
10512;DHT22;5304;48.604;2.096;2022-08-18T04:11:00;15.60;99.90
10512;DHT22;5304;48.604;2.096;2022-08-18T04:13:44;15.60;99.90
10512;DHT22;5304;48.604;2.096;2022-08-18T04:16:30;15.50;99.90
10512;DHT22;5304;48.604;2.096;2022-08-18T04:19:21;15.50;99.90
10512;DHT22;5304;48.604;2.096;2022-08-18T04:22:06;15.40;99.90
10512;DHT22;5304;48.604;2.096;2022-08-18T04:24:50;15.40;99.90
10512;DHT22;5304;48.604;2.096;2022-08-18T04:27:36;15.40;99.90
10512;DHT22;5304;48.604;2.096;2022-08-18T04:30:23;15.30;99.90
10512;DHT22;5304;48.604;2.096;2022-08-18T04:33:08;15.30;99.90
10512;DHT22;5304;48.604;2.096;2022-08-18T04:35:53;15.30;99.90
10512;DHT22;5304;48.604;2.096;2022-08-18T04:38:39;15.60;99.90
10512;DHT22;5304;48.604;2.096;2022-08-18T04:41:26;15.60;99.90
10512;DHT22;5304;48.604;2.096;2022-08-18T04:44:11;15.50;99.90
10512;DHT22;5304;48.604;2.096;2022-08-18T04:46:56;15.40;99.90
10512;DHT22;5304;48.604;2.096;2022-08-18T04:49:40;15.40;99.90
10512;DHT22;5304;48.604;2.096;2022-08-18T04:52:27;15.30;99.90
10512;DHT22;5304;48.604;2.096;2022-08-18T04:55:30;15.30;99.90
10512;DHT22;5304;48.604;2.096;2022-08-18T04:58:14;15.40;99.90
10512;DHT22;5304;48.604;2.096;2022-08-18T05:01:00;15.40;99.90
10512;DHT22;5304;48.604;2.096;2022-08-18T05:03:45;15.60;99.90
10512;DHT22;5304;48.604;2.096;2022-08-18T05:06:31;15.50;99.90
10512;DHT22;5304;48.604;2.096;2022-08-18T05:09:16;15.40;99.90
10512;DHT22;5304;48.604;2.096;2022-08-18T05:12:04;15.30;99.90
10512;DHT22;5304;48.604;2.096;2022-08-18T05:14:49;15.20;99.90
10512;DHT22;5304;48.604;2.096;2022-08-18T05:17:38;15.20;99.90
10512;DHT22;5304;48.604;2.096;2022-08-18T05:20:22;15.20;99.90
10512;DHT22;5304;48.604;2.096;2022-08-18T05:23:08;15.20;99.90
10512;DHT22;5304;48.604;2.096;2022-08-18T05:25:58;15.30;99.90
10512;DHT22;5304;48.604;2.096;2022-08-18T05:28:44;15.30;99.90
10512;DHT22;5304;48.604;2.096;2022-08-18T05:31:29;15.40;99.90
10512;DHT22;5304;48.604;2.096;2022-08-18T05:34:17;15.50;99.90
10512;DHT22;5304;48.604;2.096;2022-08-18T05:37:19;15.60;99.90
10512;DHT22;5304;48.604;2.096;2022-08-18T05:40:08;15.70;99.90
10512;DHT22;5304;48.604;2.096;2022-08-18T05:42:53;15.90;99.90
10512;DHT22;5304;48.604;2.096;2022-08-18T05:45:40;15.80;99.90
10512;DHT22;5304;48.604;2.096;2022-08-18T05:48:25;15.70;99.90
10512;DHT22;5304;48.604;2.096;2022-08-18T05:51:16;15.60;99.90
10512;DHT22;5304;48.604;2.096;2022-08-18T05:54:02;15.60;99.90
10512;DHT22;5304;48.604;2.096;2022-08-18T05:57:13;15.50;99.90
10512;DHT22;5304;48.604;2.096;2022-08-18T06:00:00;15.60;99.90
10512;DHT22;5304;48.604;2.096;2022-08-18T06:05:55;15.60;99.90
10512;DHT22;5304;48.604;2.096;2022-08-18T06:09:10;15.60;99.90
10512;DHT22;5304;48.604;2.096;2022-08-18T06:12:10;15.50;99.90
10512;DHT22;5304;48.604;2.096;2022-08-18T06:27:16;15.60;99.90
10512;DHT22;5304;48.604;2.096;2022-08-18T06:30:19;15.70;99.90
10512;DHT22;5304;48.604;2.096;2022-08-18T06:39:35;15.80;99.90
10512;DHT22;5304;48.604;2.096;2022-08-18T06:42:25;15.80;99.90
10512;DHT22;5304;48.604;2.096;2022-08-18T06:45:14;15.90;99.90
10512;DHT22;5304;48.604;2.096;2022-08-18T06:48:30;16.00;99.90
10512;DHT22;5304;48.604;2.096;2022-08-18T06:51:18;16.10;99.90
10512;DHT22;5304;48.604;2.096;2022-08-18T06:54:07;16.10;99.90
10512;DHT22;5304;48.604;2.096;2022-08-18T06:56:54;16.30;99.90
10512;DHT22;5304;48.604;2.096;2022-08-18T06:59:39;16.50;99.90
10512;DHT22;5304;48.604;2.096;2022-08-18T07:02:46;16.40;99.90
10512;DHT22;5304;48.604;2.096;2022-08-18T07:05:34;16.60;99.90
10512;DHT22;5304;48.604;2.096;2022-08-18T07:11:32;16.90;99.90
10512;DHT22;5304;48.604;2.096;2022-08-18T07:14:22;17.00;99.90
10512;DHT22;5304;48.604;2.096;2022-08-18T07:17:09;17.10;99.90
10512;DHT22;5304;48.604;2.096;2022-08-18T07:19:59;17.20;99.90
10512;DHT22;5304;48.604;2.096;2022-08-18T07:23:02;17.30;99.90
10512;DHT22;5304;48.604;2.096;2022-08-18T07:25:52;17.50;99.90
10512;DHT22;5304;48.604;2.096;2022-08-18T07:28:47;17.70;99.90
10512;DHT22;5304;48.604;2.096;2022-08-18T07:31:42;17.80;99.90
10512;DHT22;5304;48.604;2.096;2022-08-18T07:34:34;18.10;99.90
10512;DHT22;5304;48.604;2.096;2022-08-18T07:37:39;18.50;99.90
10512;DHT22;5304;48.604;2.096;2022-08-18T07:43:53;19.10;99.90
10512;DHT22;5304;48.604;2.096;2022-08-18T07:46:56;19.20;99.90
10512;DHT22;5304;48.604;2.096;2022-08-18T07:49:45;19.30;99.90
10512;DHT22;5304;48.604;2.096;2022-08-18T07:52:36;19.50;99.90
10512;DHT22;5304;48.604;2.096;2022-08-18T07:55:31;19.70;99.90
10512;DHT22;5304;48.604;2.096;2022-08-18T07:58:30;20.00;99.90
10512;DHT22;5304;48.604;2.096;2022-08-18T08:01:45;20.30;99.90
10512;DHT22;5304;48.604;2.096;2022-08-18T08:07:44;21.20;99.90
10512;DHT22;5304;48.604;2.096;2022-08-18T08:10:31;22.00;99.90
10512;DHT22;5304;48.604;2.096;2022-08-18T08:16:47;23.60;99.90
10512;DHT22;5304;48.604;2.096;2022-08-18T08:26:22;25.60;99.90
10512;DHT22;5304;48.604;2.096;2022-08-18T08:29:10;26.80;99.90
10512;DHT22;5304;48.604;2.096;2022-08-18T08:32:01;27.50;99.90
10512;DHT22;5304;48.604;2.096;2022-08-18T08:40:21;26.70;99.90
10512;DHT22;5304;48.604;2.096;2022-08-18T08:43:10;27.10;99.90
10512;DHT22;5304;48.604;2.096;2022-08-18T08:49:05;27.50;99.90
10512;DHT22;5304;48.604;2.096;2022-08-18T08:52:04;27.70;99.90
10512;DHT22;5304;48.604;2.096;2022-08-18T09:00:52;26.80;99.90
10512;DHT22;5304;48.604;2.096;2022-08-18T09:03:48;27.00;99.90
10512;DHT22;5304;48.604;2.096;2022-08-18T09:16:48;26.10;99.90
10512;DHT22;5304;48.604;2.096;2022-08-18T09:23:08;26.20;99.90
10512;DHT22;5304;48.604;2.096;2022-08-18T09:25:56;26.20;99.90
10512;DHT22;5304;48.604;2.096;2022-08-18T09:32:29;26.20;99.90
10512;DHT22;5304;48.604;2.096;2022-08-18T09:38:19;26.20;99.90
10512;DHT22;5304;48.604;2.096;2022-08-18T09:41:26;26.30;99.90
10512;DHT22;5304;48.604;2.096;2022-08-18T10:10:59;27.10;99.90
10512;DHT22;5304;48.604;2.096;2022-08-18T10:22:45;27.40;99.90
10512;DHT22;5304;48.604;2.096;2022-08-18T10:34:51;27.50;99.90
10512;DHT22;5304;48.604;2.096;2022-08-18T10:37:43;27.30;99.90
10512;DHT22;5304;48.604;2.096;2022-08-18T10:40:29;27.40;99.90
10512;DHT22;5304;48.604;2.096;2022-08-18T10:43:42;27.60;99.90
10512;DHT22;5304;48.604;2.096;2022-08-18T10:46:32;27.60;99.90
10512;DHT22;5304;48.604;2.096;2022-08-18T10:49:29;27.80;99.90
10512;DHT22;5304;48.604;2.096;2022-08-18T10:52:37;27.90;99.90
10512;DHT22;5304;48.604;2.096;2022-08-18T11:05:09;28.10;99.90
10512;DHT22;5304;48.604;2.096;2022-08-18T11:08:01;28.40;99.90
10512;DHT22;5304;48.604;2.096;2022-08-18T11:10:48;28.50;99.90
10512;DHT22;5304;48.604;2.096;2022-08-18T11:13:56;28.30;99.90
10512;DHT22;5304;48.604;2.096;2022-08-18T11:16:57;28.10;99.90
10512;DHT22;5304;48.604;2.096;2022-08-18T11:19:45;28.50;99.90
10512;DHT22;5304;48.604;2.096;2022-08-18T11:22:32;28.50;99.90
10512;DHT22;5304;48.604;2.096;2022-08-18T11:25:24;28.40;99.90
10512;DHT22;5304;48.604;2.096;2022-08-18T11:28:20;28.50;99.90
10512;DHT22;5304;48.604;2.096;2022-08-18T11:31:07;28.30;99.90
10512;DHT22;5304;48.604;2.096;2022-08-18T11:33:52;28.30;99.90
10512;DHT22;5304;48.604;2.096;2022-08-18T11:36:36;28.30;99.90
10512;DHT22;5304;48.604;2.096;2022-08-18T11:39:20;28.60;99.90
10512;DHT22;5304;48.604;2.096;2022-08-18T11:42:07;28.70;99.90
10512;DHT22;5304;48.604;2.096;2022-08-18T11:45:02;28.80;99.90
10512;DHT22;5304;48.604;2.096;2022-08-18T11:51:07;28.80;99.90
10512;DHT22;5304;48.604;2.096;2022-08-18T11:53:56;28.80;99.90
10512;DHT22;5304;48.604;2.096;2022-08-18T11:56:42;28.90;99.90
10512;DHT22;5304;48.604;2.096;2022-08-18T12:02:18;28.80;99.90
10512;DHT22;5304;48.604;2.096;2022-08-18T12:05:04;28.70;99.90
10512;DHT22;5304;48.604;2.096;2022-08-18T12:07:49;28.70;99.90
10512;DHT22;5304;48.604;2.096;2022-08-18T12:10:34;28.30;99.90
10512;DHT22;5304;48.604;2.096;2022-08-18T12:13:22;27.80;99.90
10512;DHT22;5304;48.604;2.096;2022-08-18T12:16:09;27.40;99.90
10512;DHT22;5304;48.604;2.096;2022-08-18T12:18:54;27.10;99.90
10512;DHT22;5304;48.604;2.096;2022-08-18T12:21:41;27.30;99.90
10512;DHT22;5304;48.604;2.096;2022-08-18T12:24:29;27.60;99.90
10512;DHT22;5304;48.604;2.096;2022-08-18T12:27:15;28.00;99.90
10512;DHT22;5304;48.604;2.096;2022-08-18T12:30:01;28.30;99.90
10512;DHT22;5304;48.604;2.096;2022-08-18T12:32:45;28.60;99.90
10512;DHT22;5304;48.604;2.096;2022-08-18T12:35:30;28.60;99.90
10512;DHT22;5304;48.604;2.096;2022-08-18T12:38:15;28.70;99.90
10512;DHT22;5304;48.604;2.096;2022-08-18T12:41:00;28.40;99.90
10512;DHT22;5304;48.604;2.096;2022-08-18T12:43:45;28.00;99.90
10512;DHT22;5304;48.604;2.096;2022-08-18T12:46:31;28.00;99.90
10512;DHT22;5304;48.604;2.096;2022-08-18T12:49:21;28.20;99.90
10512;DHT22;5304;48.604;2.096;2022-08-18T12:52:06;28.50;99.90
10512;DHT22;5304;48.604;2.096;2022-08-18T12:54:50;28.40;99.90
10512;DHT22;5304;48.604;2.096;2022-08-18T12:57:35;27.90;99.90
10512;DHT22;5304;48.604;2.096;2022-08-18T13:42:47;28.90;99.90
10512;DHT22;5304;48.604;2.096;2022-08-18T13:45:32;29.10;99.90
10512;DHT22;5304;48.604;2.096;2022-08-18T13:48:17;29.20;99.90
10512;DHT22;5304;48.604;2.096;2022-08-18T13:51:02;28.70;99.90
10512;DHT22;5304;48.604;2.096;2022-08-18T13:53:47;28.70;99.90
10512;DHT22;5304;48.604;2.096;2022-08-18T13:56:31;28.90;99.90
10512;DHT22;5304;48.604;2.096;2022-08-18T13:59:16;29.10;99.90
10512;DHT22;5304;48.604;2.096;2022-08-18T14:02:04;29.30;99.90
10512;DHT22;5304;48.604;2.096;2022-08-18T14:04:50;29.30;99.90
10512;DHT22;5304;48.604;2.096;2022-08-18T14:07:39;29.20;99.90
10512;DHT22;5304;48.604;2.096;2022-08-18T14:10:25;29.30;99.90
10512;DHT22;5304;48.604;2.096;2022-08-18T14:13:11;29.10;99.90
10512;DHT22;5304;48.604;2.096;2022-08-18T14:15:57;28.80;99.90
10512;DHT22;5304;48.604;2.096;2022-08-18T14:18:42;28.30;99.90
10512;DHT22;5304;48.604;2.096;2022-08-18T14:21:26;27.90;99.90
10512;DHT22;5304;48.604;2.096;2022-08-18T14:24:31;27.60;99.90
10512;DHT22;5304;48.604;2.096;2022-08-18T14:27:38;27.70;99.90
10512;DHT22;5304;48.604;2.096;2022-08-18T14:30:23;28.00;99.90
10512;DHT22;5304;48.604;2.096;2022-08-18T14:33:08;28.30;99.90
10512;DHT22;5304;48.604;2.096;2022-08-18T14:35:53;28.50;99.90
10512;DHT22;5304;48.604;2.096;2022-08-18T14:38:38;28.60;99.90
10512;DHT22;5304;48.604;2.096;2022-08-18T14:41:23;28.70;99.90
10512;DHT22;5304;48.604;2.096;2022-08-18T14:44:07;28.70;99.90
10512;DHT22;5304;48.604;2.096;2022-08-18T14:46:54;28.60;99.90
10512;DHT22;5304;48.604;2.096;2022-08-18T14:49:40;28.50;99.90
10512;DHT22;5304;48.604;2.096;2022-08-18T14:52:26;28.20;99.90
10512;DHT22;5304;48.604;2.096;2022-08-18T14:55:10;27.90;99.90
10512;DHT22;5304;48.604;2.096;2022-08-18T14:57:55;27.80;99.90
10512;DHT22;5304;48.604;2.096;2022-08-18T15:00:39;27.80;99.90
10512;DHT22;5304;48.604;2.096;2022-08-18T15:03:28;27.70;99.90
10512;DHT22;5304;48.604;2.096;2022-08-18T15:06:13;27.70;99.90
10512;DHT22;5304;48.604;2.096;2022-08-18T15:08:58;27.80;99.90
10512;DHT22;5304;48.604;2.096;2022-08-18T15:11:42;27.90;99.90
10512;DHT22;5304;48.604;2.096;2022-08-18T15:14:28;28.00;99.90
10512;DHT22;5304;48.604;2.096;2022-08-18T15:17:14;28.30;99.90
10512;DHT22;5304;48.604;2.096;2022-08-18T15:19:58;28.30;99.90
10512;DHT22;5304;48.604;2.096;2022-08-18T15:22:44;28.50;99.90
10512;DHT22;5304;48.604;2.096;2022-08-18T15:25:48;28.70;99.90
10512;DHT22;5304;48.604;2.096;2022-08-18T15:28:32;28.70;99.90
10512;DHT22;5304;48.604;2.096;2022-08-18T15:31:17;28.70;99.90
10512;DHT22;5304;48.604;2.096;2022-08-18T15:34:02;28.70;99.90
10512;DHT22;5304;48.604;2.096;2022-08-18T15:36:47;28.80;99.90
10512;DHT22;5304;48.604;2.096;2022-08-18T15:39:32;28.80;99.90
10512;DHT22;5304;48.604;2.096;2022-08-18T15:42:17;28.80;99.90
10512;DHT22;5304;48.604;2.096;2022-08-18T15:45:02;28.80;99.90
10512;DHT22;5304;48.604;2.096;2022-08-18T15:47:47;28.90;99.90
10512;DHT22;5304;48.604;2.096;2022-08-18T15:50:31;28.80;99.90
10512;DHT22;5304;48.604;2.096;2022-08-18T15:53:19;28.70;99.90
10512;DHT22;5304;48.604;2.096;2022-08-18T15:56:03;28.60;99.90
10512;DHT22;5304;48.604;2.096;2022-08-18T15:58:49;28.60;99.90
10512;DHT22;5304;48.604;2.096;2022-08-18T16:01:35;28.50;99.90
10512;DHT22;5304;48.604;2.096;2022-08-18T16:04:19;28.40;99.90
10512;DHT22;5304;48.604;2.096;2022-08-18T16:07:04;28.30;99.90
10512;DHT22;5304;48.604;2.096;2022-08-18T16:09:48;28.20;99.90
10512;DHT22;5304;48.604;2.096;2022-08-18T16:12:33;28.10;99.90
10512;DHT22;5304;48.604;2.096;2022-08-18T16:15:20;28.00;99.90
10512;DHT22;5304;48.604;2.096;2022-08-18T16:18:06;27.90;99.90
10512;DHT22;5304;48.604;2.096;2022-08-18T16:20:51;27.80;99.90
10512;DHT22;5304;48.604;2.096;2022-08-18T16:23:42;27.80;99.90
10512;DHT22;5304;48.604;2.096;2022-08-18T16:26:30;27.70;99.90
10512;DHT22;5304;48.604;2.096;2022-08-18T16:29:14;27.70;99.90
10512;DHT22;5304;48.604;2.096;2022-08-18T16:31:58;27.60;99.90
10512;DHT22;5304;48.604;2.096;2022-08-18T16:34:43;27.40;99.90
10512;DHT22;5304;48.604;2.096;2022-08-18T16:37:28;27.40;99.90
10512;DHT22;5304;48.604;2.096;2022-08-18T16:40:14;27.40;99.90
10512;DHT22;5304;48.604;2.096;2022-08-18T16:42:58;27.40;99.90
10512;DHT22;5304;48.604;2.096;2022-08-18T16:45:43;27.30;99.90
10512;DHT22;5304;48.604;2.096;2022-08-18T16:48:29;27.10;99.90
10512;DHT22;5304;48.604;2.096;2022-08-18T16:51:16;27.10;99.90
10512;DHT22;5304;48.604;2.096;2022-08-18T16:54:00;27.00;99.90
10512;DHT22;5304;48.604;2.096;2022-08-18T16:56:45;27.00;99.90
10512;DHT22;5304;48.604;2.096;2022-08-18T16:59:29;27.00;99.90
10512;DHT22;5304;48.604;2.096;2022-08-18T17:02:32;26.90;99.90
10512;DHT22;5304;48.604;2.096;2022-08-18T17:05:36;26.90;99.90
10512;DHT22;5304;48.604;2.096;2022-08-18T17:08:20;26.90;99.90
10512;DHT22;5304;48.604;2.096;2022-08-18T17:11:08;26.90;99.90
10512;DHT22;5304;48.604;2.096;2022-08-18T17:13:53;26.80;99.90
10512;DHT22;5304;48.604;2.096;2022-08-18T17:16:38;26.60;99.90
10512;DHT22;5304;48.604;2.096;2022-08-18T17:19:31;26.60;99.90
10512;DHT22;5304;48.604;2.096;2022-08-18T17:22:17;26.60;99.90
10512;DHT22;5304;48.604;2.096;2022-08-18T17:25:01;26.50;99.90
10512;DHT22;5304;48.604;2.096;2022-08-18T17:27:47;26.50;99.90
10512;DHT22;5304;48.604;2.096;2022-08-18T17:30:34;26.40;99.90
10512;DHT22;5304;48.604;2.096;2022-08-18T17:33:27;26.30;99.90
10512;DHT22;5304;48.604;2.096;2022-08-18T17:36:21;26.20;99.90
10512;DHT22;5304;48.604;2.096;2022-08-18T17:39:07;26.20;99.90
10512;DHT22;5304;48.604;2.096;2022-08-18T17:41:54;26.20;99.90
10512;DHT22;5304;48.604;2.096;2022-08-18T17:44:59;26.20;99.90
10512;DHT22;5304;48.604;2.096;2022-08-18T17:48:01;26.00;99.90
10512;DHT22;5304;48.604;2.096;2022-08-18T17:51:02;25.90;99.90
10512;DHT22;5304;48.604;2.096;2022-08-18T17:54:35;25.90;99.90
10512;DHT22;5304;48.604;2.096;2022-08-18T17:57:29;25.80;99.90
10512;DHT22;5304;48.604;2.096;2022-08-18T18:00:17;25.80;99.90
10512;DHT22;5304;48.604;2.096;2022-08-18T18:03:02;25.70;99.90
10512;DHT22;5304;48.604;2.096;2022-08-18T18:05:50;25.60;99.90
10512;DHT22;5304;48.604;2.096;2022-08-18T18:08:51;25.50;99.90
10512;DHT22;5304;48.604;2.096;2022-08-18T18:11:42;25.40;99.90
10512;DHT22;5304;48.604;2.096;2022-08-18T18:14:35;25.30;99.90
10512;DHT22;5304;48.604;2.096;2022-08-18T18:17:31;25.30;99.90
10512;DHT22;5304;48.604;2.096;2022-08-18T18:20:38;25.20;99.90
10512;DHT22;5304;48.604;2.096;2022-08-18T18:23:29;25.10;99.90
10512;DHT22;5304;48.604;2.096;2022-08-18T18:29:22;25.00;99.90
10512;DHT22;5304;48.604;2.096;2022-08-18T18:32:26;24.90;99.90
10512;DHT22;5304;48.604;2.096;2022-08-18T18:35:17;24.80;99.90
10512;DHT22;5304;48.604;2.096;2022-08-18T18:38:31;24.80;99.90
10512;DHT22;5304;48.604;2.096;2022-08-18T18:41:22;24.60;99.90
10512;DHT22;5304;48.604;2.096;2022-08-18T18:44:11;24.50;99.90
10512;DHT22;5304;48.604;2.096;2022-08-18T18:56:34;24.40;99.90
10512;DHT22;5304;48.604;2.096;2022-08-18T19:02:53;24.20;99.90
10512;DHT22;5304;48.604;2.096;2022-08-18T19:09:05;24.10;99.90
10512;DHT22;5304;48.604;2.096;2022-08-18T19:15:12;23.80;99.90
10512;DHT22;5304;48.604;2.096;2022-08-18T19:18:02;23.70;99.90
10512;DHT22;5304;48.604;2.096;2022-08-18T19:20:51;23.60;99.90
10512;DHT22;5304;48.604;2.096;2022-08-18T19:26:32;23.40;99.90
10512;DHT22;5304;48.604;2.096;2022-08-18T19:29:30;23.30;99.90
10512;DHT22;5304;48.604;2.096;2022-08-18T19:32:26;23.30;99.90
10512;DHT22;5304;48.604;2.096;2022-08-18T19:35:18;23.20;99.90
10512;DHT22;5304;48.604;2.096;2022-08-18T19:41:18;23.00;99.90
10512;DHT22;5304;48.604;2.096;2022-08-18T19:47:19;22.90;99.90
10512;DHT22;5304;48.604;2.096;2022-08-18T19:50:32;22.80;99.90
10512;DHT22;5304;48.604;2.096;2022-08-18T19:56:23;22.70;99.90
10512;DHT22;5304;48.604;2.096;2022-08-18T20:14:32;22.40;99.90
10512;DHT22;5304;48.604;2.096;2022-08-18T20:17:20;22.30;99.90
10512;DHT22;5304;48.604;2.096;2022-08-18T20:20:11;22.30;99.90
10512;DHT22;5304;48.604;2.096;2022-08-18T20:22:57;22.20;99.90
10512;DHT22;5304;48.604;2.096;2022-08-18T20:25:43;22.20;99.90
10512;DHT22;5304;48.604;2.096;2022-08-18T20:28:36;22.10;99.90
10512;DHT22;5304;48.604;2.096;2022-08-18T20:31:22;22.10;99.90
10512;DHT22;5304;48.604;2.096;2022-08-18T20:34:09;22.00;99.90
10512;DHT22;5304;48.604;2.096;2022-08-18T20:36:56;22.00;99.90
10512;DHT22;5304;48.604;2.096;2022-08-18T20:39:47;22.00;99.90
10512;DHT22;5304;48.604;2.096;2022-08-18T20:45:27;21.90;99.90
10512;DHT22;5304;48.604;2.096;2022-08-18T20:48:24;21.80;99.90
10512;DHT22;5304;48.604;2.096;2022-08-18T20:51:14;21.70;99.90
10512;DHT22;5304;48.604;2.096;2022-08-18T20:54:15;21.70;99.90
10512;DHT22;5304;48.604;2.096;2022-08-18T20:57:02;21.70;99.90
10512;DHT22;5304;48.604;2.096;2022-08-18T21:00:11;21.70;99.90
10512;DHT22;5304;48.604;2.096;2022-08-18T21:03:05;21.60;99.90
10512;DHT22;5304;48.604;2.096;2022-08-18T21:05:56;21.60;99.90
10512;DHT22;5304;48.604;2.096;2022-08-18T21:08:51;21.60;99.90
10512;DHT22;5304;48.604;2.096;2022-08-18T21:11:42;21.50;99.90
10512;DHT22;5304;48.604;2.096;2022-08-18T21:14:28;21.50;99.90
10512;DHT22;5304;48.604;2.096;2022-08-18T21:17:14;21.50;99.90
10512;DHT22;5304;48.604;2.096;2022-08-18T21:20:01;21.40;99.90
10512;DHT22;5304;48.604;2.096;2022-08-18T21:22:46;21.30;99.90
10512;DHT22;5304;48.604;2.096;2022-08-18T21:25:30;21.20;99.90
10512;DHT22;5304;48.604;2.096;2022-08-18T21:28:16;21.20;99.90
10512;DHT22;5304;48.604;2.096;2022-08-18T21:31:06;21.20;99.90
10512;DHT22;5304;48.604;2.096;2022-08-18T21:33:55;21.10;99.90
10512;DHT22;5304;48.604;2.096;2022-08-18T21:36:54;21.00;99.90
10512;DHT22;5304;48.604;2.096;2022-08-18T21:39:57;21.00;99.90
10512;DHT22;5304;48.604;2.096;2022-08-18T21:42:44;21.00;99.90
10512;DHT22;5304;48.604;2.096;2022-08-18T21:45:29;21.00;99.90
10512;DHT22;5304;48.604;2.096;2022-08-18T21:48:15;21.00;99.90
10512;DHT22;5304;48.604;2.096;2022-08-18T21:51:01;21.00;99.90
10512;DHT22;5304;48.604;2.096;2022-08-18T21:53:48;20.90;99.90
10512;DHT22;5304;48.604;2.096;2022-08-18T21:56:35;20.80;99.90